WMT3685 LIBP-LATI
Flight info
| Callsign | WMT3685 |
|---|---|
| Flight time | 0h 52m |
| Altitude | 35000 |
| Route | ERPOG DCT GARGA DCT VAKSU DCT PETAK |
| Aircraft | A321/M-SDE1E2E3FGIJ1J4RWXY/LB1 |
Departure
| Time | 2026-04-23 18:02 |
|---|---|
| Airport | Abruzzo Airport (LIBP) |
Arrival
| Time | 2026-04-23 18:54 |
|---|---|
| Airport | Tirana International Airport Mother Teresa (LATI) |
| Time | Latitude | Longitude | Altitude | Speed | Heading |
|---|---|---|---|---|---|
| 2026-04-23 17:50 | 42.43066 | 14.18752 | 48 ft | 0 kts | 128° |
| 2026-04-23 17:53 | 42.43080 | 14.18730 | 48 ft | 3 kts | 142° |
| 2026-04-23 17:53 | 42.43100 | 14.18715 | 43 ft | 3 kts | 172° |
| 2026-04-23 17:53 | 42.43120 | 14.18718 | 46 ft | 2 kts | 217° |
| 2026-04-23 17:54 | 42.43121 | 14.18719 | 46 ft | 0 kts | 217° |
| 2026-04-23 17:56 | 42.43116 | 14.18714 | 48 ft | 1 kts | 217° |
| 2026-04-23 17:57 | 42.43102 | 14.18700 | 48 ft | 5 kts | 217° |
| 2026-04-23 17:57 | 42.43065 | 14.18661 | 48 ft | 8 kts | 217° |
| 2026-04-23 17:57 | 42.43015 | 14.18501 | 48 ft | 11 kts | 262° |
| 2026-04-23 17:58 | 42.42987 | 14.18441 | 48 ft | 12 kts | 219° |
| 2026-04-23 17:58 | 42.42910 | 14.18362 | 48 ft | 16 kts | 217° |
| 2026-04-23 17:58 | 42.42813 | 14.18262 | 48 ft | 19 kts | 217° |
| 2026-04-23 17:58 | 42.42700 | 14.18144 | 48 ft | 22 kts | 217° |
| 2026-04-23 17:59 | 42.42571 | 14.18011 | 48 ft | 24 kts | 217° |
| 2026-04-23 17:59 | 42.42436 | 14.17871 | 46 ft | 25 kts | 217° |
| 2026-04-23 17:59 | 42.42323 | 14.17756 | 45 ft | 17 kts | 217° |
| 2026-04-23 17:59 | 42.42274 | 14.17671 | 48 ft | 11 kts | 258° |
| 2026-04-23 18:00 | 42.42271 | 14.17621 | 48 ft | 0 kts | 266° |
| 2026-04-23 18:00 | 42.42271 | 14.17620 | 48 ft | 1 kts | 266° |
| 2026-04-23 18:01 | 42.42270 | 14.17591 | 48 ft | 6 kts | 266° |
| 2026-04-23 18:01 | 42.42272 | 14.17515 | 47 ft | 10 kts | 287° |
| 2026-04-23 18:01 | 42.42329 | 14.17476 | 47 ft | 10 kts | 11° |
| 2026-04-23 18:01 | 42.42394 | 14.17536 | 47 ft | 14 kts | 38° |
| 2026-04-23 18:02 | 42.42599 | 14.17748 | 49 ft | 73 kts | 37° |
| 2026-04-23 18:02 | 42.43201 | 14.18373 | 47 ft | 141 kts | 38° |
| 2026-04-23 18:02 | 42.44056 | 14.19257 | 482 ft | 154 kts | 35° |
| 2026-04-23 18:02 | 42.44914 | 14.20150 | 1285 ft | 155 kts | 34° |
| 2026-04-23 18:03 | 42.45798 | 14.21065 | 1744 ft | 169 kts | 34° |
| 2026-04-23 18:03 | 42.46796 | 14.22093 | 2078 ft | 191 kts | 33° |
| 2026-04-23 18:03 | 42.47915 | 14.23244 | 2377 ft | 213 kts | 33° |
| 2026-04-23 18:03 | 42.49155 | 14.24555 | 2618 ft | 240 kts | 40° |
| 2026-04-23 18:04 | 42.50002 | 14.26570 | 3124 ft | 263 kts | 78° |
| 2026-04-23 18:04 | 42.49925 | 14.29074 | 3985 ft | 269 kts | 101° |
| 2026-04-23 18:04 | 42.49410 | 14.31504 | 5032 ft | 267 kts | 105° |
| 2026-04-23 18:04 | 42.48784 | 14.33872 | 6016 ft | 267 kts | 107° |
| 2026-04-23 18:05 | 42.48167 | 14.36251 | 6841 ft | 267 kts | 105° |
| 2026-04-23 18:05 | 42.47598 | 14.38669 | 7486 ft | 271 kts | 103° |
| 2026-04-23 18:05 | 42.47075 | 14.41127 | 8154 ft | 273 kts | 102° |
| 2026-04-23 18:05 | 42.46583 | 14.43627 | 9006 ft | 275 kts | 100° |
| 2026-04-23 18:06 | 42.46108 | 14.46154 | 9838 ft | 278 kts | 99° |
| 2026-04-23 18:06 | 42.45638 | 14.48727 | 10478 ft | 289 kts | 99° |
| 2026-04-23 18:06 | 42.45232 | 14.51455 | 10703 ft | 309 kts | 92° |
| 2026-04-23 18:06 | 42.45207 | 14.54412 | 11134 ft | 318 kts | 83° |
| 2026-04-23 18:07 | 42.45352 | 14.57431 | 11814 ft | 323 kts | 83° |
| 2026-04-23 18:07 | 42.45486 | 14.60500 | 12546 ft | 327 kts | 83° |
| 2026-04-23 18:07 | 42.45615 | 14.63593 | 13270 ft | 331 kts | 83° |
| 2026-04-23 18:07 | 42.45740 | 14.66724 | 13988 ft | 335 kts | 83° |
| 2026-04-23 18:08 | 42.45824 | 14.68811 | 14414 ft | 337 kts | 83° |
| 2026-04-23 18:08 | 42.45997 | 14.73078 | 15320 ft | 340 kts | 83° |
| 2026-04-23 18:08 | 42.46127 | 14.76299 | 16018 ft | 343 kts | 83° |
| 2026-04-23 18:08 | 42.46259 | 14.79535 | 16716 ft | 345 kts | 83° |
| 2026-04-23 18:09 | 42.46393 | 14.82796 | 17295 ft | 347 kts | 84° |
| 2026-04-23 18:09 | 42.46524 | 14.86061 | 17845 ft | 349 kts | 84° |
| 2026-04-23 18:09 | 42.46657 | 14.89377 | 18510 ft | 352 kts | 84° |
| 2026-04-23 18:09 | 42.46791 | 14.92704 | 19110 ft | 355 kts | 84° |
| 2026-04-23 18:10 | 42.46924 | 14.96015 | 19694 ft | 358 kts | 84° |
| 2026-04-23 18:10 | 42.47058 | 14.99436 | 20283 ft | 361 kts | 84° |
| 2026-04-23 18:10 | 42.47188 | 15.02810 | 20874 ft | 364 kts | 84° |
| 2026-04-23 18:10 | 42.47318 | 15.06250 | 21458 ft | 367 kts | 84° |
| 2026-04-23 18:11 | 42.47446 | 15.09718 | 22048 ft | 369 kts | 84° |
| 2026-04-23 18:11 | 42.47574 | 15.13210 | 22637 ft | 373 kts | 84° |
| 2026-04-23 18:11 | 42.47703 | 15.16748 | 23212 ft | 376 kts | 84° |
| 2026-04-23 18:11 | 42.47608 | 15.20318 | 23752 ft | 383 kts | 94° |
| 2026-04-23 18:12 | 42.47025 | 15.23874 | 24200 ft | 390 kts | 103° |
| 2026-04-23 18:12 | 42.46226 | 15.27366 | 24645 ft | 393 kts | 103° |
| 2026-04-23 18:12 | 42.45414 | 15.30910 | 25119 ft | 396 kts | 103° |
| 2026-04-23 18:12 | 42.44598 | 15.34488 | 25568 ft | 398 kts | 103° |
| 2026-04-23 18:13 | 42.43779 | 15.38087 | 26005 ft | 401 kts | 103° |
| 2026-04-23 18:13 | 42.42952 | 15.41714 | 26440 ft | 403 kts | 103° |
| 2026-04-23 18:13 | 42.42119 | 15.45358 | 26870 ft | 406 kts | 103° |
| 2026-04-23 18:13 | 42.41275 | 15.49030 | 27288 ft | 409 kts | 103° |
| 2026-04-23 18:14 | 42.40423 | 15.52716 | 27699 ft | 411 kts | 104° |
| 2026-04-23 18:14 | 42.39575 | 15.56378 | 28102 ft | 414 kts | 104° |
| 2026-04-23 18:14 | 42.38711 | 15.60118 | 28520 ft | 416 kts | 104° |
| 2026-04-23 18:14 | 42.37842 | 15.63880 | 28922 ft | 419 kts | 104° |
| 2026-04-23 18:15 | 42.36973 | 15.67653 | 29364 ft | 421 kts | 104° |
| 2026-04-23 18:15 | 42.36096 | 15.71452 | 29765 ft | 423 kts | 104° |
| 2026-04-23 18:15 | 42.35211 | 15.75275 | 30153 ft | 426 kts | 104° |
| 2026-04-23 18:15 | 42.34322 | 15.79104 | 30471 ft | 428 kts | 104° |
| 2026-04-23 18:16 | 42.33421 | 15.82956 | 30788 ft | 430 kts | 104° |
| 2026-04-23 18:16 | 42.32525 | 15.86771 | 31098 ft | 433 kts | 104° |
| 2026-04-23 18:16 | 42.31609 | 15.90667 | 31427 ft | 435 kts | 104° |
| 2026-04-23 18:17 | 42.29777 | 15.98481 | 32259 ft | 434 kts | 104° |
| 2026-04-23 18:17 | 42.28864 | 16.02352 | 32787 ft | 431 kts | 104° |
| 2026-04-23 18:17 | 42.27952 | 16.06204 | 33266 ft | 430 kts | 104° |
| 2026-04-23 18:17 | 42.27050 | 16.10050 | 33685 ft | 428 kts | 102° |
| 2026-04-23 18:18 | 42.26439 | 16.13963 | 33965 ft | 424 kts | 94° |
| 2026-04-23 18:18 | 42.26079 | 16.17926 | 34223 ft | 424 kts | 94° |
| 2026-04-23 18:18 | 42.25718 | 16.21836 | 34454 ft | 423 kts | 94° |
| 2026-04-23 18:18 | 42.25344 | 16.25783 | 34692 ft | 423 kts | 94° |
| 2026-04-23 18:19 | 42.24966 | 16.29731 | 34939 ft | 423 kts | 94° |
| 2026-04-23 18:19 | 42.24588 | 16.33674 | 35084 ft | 424 kts | 94° |
| 2026-04-23 18:19 | 42.23828 | 16.41568 | 35243 ft | 422 kts | 94° |
| 2026-04-23 18:20 | 42.23446 | 16.45511 | 35076 ft | 420 kts | 94° |
| 2026-04-23 18:20 | 42.23071 | 16.49347 | 35102 ft | 415 kts | 94° |
| 2026-04-23 18:20 | 42.22318 | 16.57089 | 35111 ft | 415 kts | 94° |
| 2026-04-23 18:21 | 42.21556 | 16.64827 | 35103 ft | 415 kts | 94° |
| 2026-04-23 18:21 | 42.20787 | 16.72564 | 35111 ft | 415 kts | 94° |
| 2026-04-23 18:22 | 42.20017 | 16.80249 | 35100 ft | 415 kts | 94° |
| 2026-04-23 18:22 | 42.19237 | 16.87986 | 35102 ft | 415 kts | 94° |
| 2026-04-23 18:23 | 42.18070 | 16.99582 | 35101 ft | 415 kts | 94° |
| 2026-04-23 18:24 | 42.16896 | 17.11128 | 35109 ft | 415 kts | 94° |
| 2026-04-23 18:25 | 42.15691 | 17.22714 | 35098 ft | 415 kts | 94° |
| 2026-04-23 18:25 | 42.14887 | 17.30430 | 35097 ft | 415 kts | 94° |
| 2026-04-23 18:26 | 42.14074 | 17.38096 | 35096 ft | 415 kts | 95° |
| 2026-04-23 18:26 | 42.13253 | 17.45814 | 35107 ft | 415 kts | 95° |
| 2026-04-23 18:27 | 42.12443 | 17.53474 | 35093 ft | 415 kts | 95° |
| 2026-04-23 18:27 | 42.11623 | 17.61214 | 35091 ft | 415 kts | 95° |
| 2026-04-23 18:28 | 42.10814 | 17.68692 | 34952 ft | 394 kts | 95° |
| 2026-04-23 18:28 | 42.10413 | 17.72365 | 34211 ft | 400 kts | 95° |
| 2026-04-23 18:28 | 42.10009 | 17.76092 | 33609 ft | 400 kts | 95° |
| 2026-04-23 18:28 | 42.09609 | 17.79787 | 33125 ft | 397 kts | 95° |
| 2026-04-23 18:29 | 42.09207 | 17.83458 | 32643 ft | 393 kts | 95° |
| 2026-04-23 18:29 | 42.08811 | 17.87081 | 32176 ft | 390 kts | 95° |
| 2026-04-23 18:29 | 42.08421 | 17.90644 | 31711 ft | 386 kts | 95° |
| 2026-04-23 18:29 | 42.08028 | 17.94211 | 31257 ft | 383 kts | 95° |
| 2026-04-23 18:30 | 42.07349 | 17.97667 | 30858 ft | 384 kts | 110° |
| 2026-04-23 18:30 | 42.05959 | 18.00778 | 30643 ft | 392 kts | 120° |
| 2026-04-23 18:30 | 42.04361 | 18.03762 | 30382 ft | 392 kts | 121° |
| 2026-04-23 18:30 | 42.03295 | 18.05726 | 30221 ft | 391 kts | 121° |
| 2026-04-23 18:31 | 42.01685 | 18.08678 | 29950 ft | 390 kts | 121° |
| 2026-04-23 18:31 | 42.00079 | 18.11615 | 29661 ft | 388 kts | 121° |
| 2026-04-23 18:31 | 41.98478 | 18.14541 | 29378 ft | 386 kts | 121° |
| 2026-04-23 18:31 | 41.96894 | 18.17442 | 29112 ft | 384 kts | 121° |
| 2026-04-23 18:32 | 41.95319 | 18.20324 | 28835 ft | 381 kts | 121° |
| 2026-04-23 18:32 | 41.93750 | 18.23187 | 28559 ft | 379 kts | 121° |
| 2026-04-23 18:32 | 41.92189 | 18.26031 | 28286 ft | 376 kts | 121° |
| 2026-04-23 18:32 | 41.90638 | 18.28851 | 28019 ft | 374 kts | 121° |
| 2026-04-23 18:33 | 41.89112 | 18.31627 | 27749 ft | 373 kts | 121° |
| 2026-04-23 18:33 | 41.87573 | 18.34426 | 27478 ft | 371 kts | 121° |
| 2026-04-23 18:33 | 41.86048 | 18.37200 | 27226 ft | 369 kts | 121° |
| 2026-04-23 18:33 | 41.84525 | 18.39967 | 26972 ft | 367 kts | 121° |
| 2026-04-23 18:34 | 41.83010 | 18.42716 | 26716 ft | 365 kts | 121° |
| 2026-04-23 18:34 | 41.81504 | 18.45449 | 26468 ft | 362 kts | 121° |
| 2026-04-23 18:34 | 41.80247 | 18.48306 | 26101 ft | 348 kts | 106° |
| 2026-04-23 18:34 | 41.79641 | 18.51392 | 25147 ft | 342 kts | 97° |
| 2026-04-23 18:35 | 41.79237 | 18.54583 | 23855 ft | 353 kts | 96° |
| 2026-04-23 18:35 | 41.78851 | 18.57883 | 22326 ft | 364 kts | 96° |
| 2026-04-23 18:35 | 41.78461 | 18.61290 | 21407 ft | 370 kts | 96° |
| 2026-04-23 18:35 | 41.78064 | 18.64687 | 20654 ft | 369 kts | 96° |
| 2026-04-23 18:36 | 41.77653 | 18.68076 | 19964 ft | 367 kts | 96° |
| 2026-04-23 18:36 | 41.77243 | 18.71438 | 19155 ft | 363 kts | 96° |
| 2026-04-23 18:36 | 41.76838 | 18.74776 | 18290 ft | 361 kts | 96° |
| 2026-04-23 18:36 | 41.76437 | 18.78050 | 17355 ft | 359 kts | 96° |
| 2026-04-23 18:37 | 41.76030 | 18.81337 | 16432 ft | 356 kts | 96° |
| 2026-04-23 18:37 | 41.75625 | 18.84602 | 15524 ft | 353 kts | 96° |
| 2026-04-23 18:37 | 41.75222 | 18.87864 | 14797 ft | 354 kts | 96° |
| 2026-04-23 18:37 | 41.74821 | 18.91098 | 14242 ft | 352 kts | 96° |
| 2026-04-23 18:38 | 41.74423 | 18.94309 | 13668 ft | 350 kts | 96° |
| 2026-04-23 18:38 | 41.74022 | 18.97538 | 13071 ft | 348 kts | 96° |
| 2026-04-23 18:38 | 41.73624 | 19.00721 | 12458 ft | 346 kts | 96° |
| 2026-04-23 18:38 | 41.73227 | 19.03886 | 11882 ft | 343 kts | 96° |
| 2026-04-23 18:39 | 41.72832 | 19.07025 | 11320 ft | 340 kts | 96° |
| 2026-04-23 18:39 | 41.72437 | 19.10150 | 10744 ft | 338 kts | 95° |
| 2026-04-23 18:39 | 41.72045 | 19.13253 | 10203 ft | 336 kts | 97° |
| 2026-04-23 18:39 | 41.71657 | 19.16312 | 9681 ft | 332 kts | 95° |
| 2026-04-23 18:40 | 41.71273 | 19.19344 | 9130 ft | 329 kts | 98° |
| 2026-04-23 18:40 | 41.70895 | 19.22319 | 8545 ft | 327 kts | 97° |
| 2026-04-23 18:40 | 41.70517 | 19.25280 | 8330 ft | 314 kts | 96° |
| 2026-04-23 18:40 | 41.70152 | 19.28119 | 8065 ft | 304 kts | 95° |
| 2026-04-23 18:41 | 41.69799 | 19.30869 | 7807 ft | 295 kts | 97° |
| 2026-04-23 18:41 | 41.69459 | 19.33508 | 7548 ft | 282 kts | 96° |
| 2026-04-23 18:41 | 41.69132 | 19.36037 | 7292 ft | 267 kts | 98° |
| 2026-04-23 18:41 | 41.68823 | 19.38418 | 7045 ft | 252 kts | 95° |
| 2026-04-23 18:42 | 41.68530 | 19.40671 | 6791 ft | 242 kts | 94° |
| 2026-04-23 18:42 | 41.68247 | 19.42875 | 6535 ft | 238 kts | 97° |
| 2026-04-23 18:42 | 41.67973 | 19.45011 | 6290 ft | 233 kts | 94° |
| 2026-04-23 18:42 | 41.67701 | 19.47131 | 6064 ft | 227 kts | 96° |
| 2026-04-23 18:43 | 41.67435 | 19.49182 | 5803 ft | 219 kts | 96° |
| 2026-04-23 18:43 | 41.67180 | 19.51158 | 5560 ft | 212 kts | 95° |
| 2026-04-23 18:43 | 41.66930 | 19.53086 | 5382 ft | 209 kts | 96° |
| 2026-04-23 18:43 | 41.66684 | 19.54989 | 5206 ft | 207 kts | 96° |
| 2026-04-23 18:44 | 41.66441 | 19.56880 | 5028 ft | 205 kts | 95° |
| 2026-04-23 18:44 | 41.66197 | 19.58763 | 4855 ft | 205 kts | 96° |
| 2026-04-23 18:44 | 41.65953 | 19.60615 | 4676 ft | 204 kts | 96° |
| 2026-04-23 18:44 | 41.65710 | 19.62482 | 4561 ft | 198 kts | 96° |
| 2026-04-23 18:45 | 41.65480 | 19.64228 | 4435 ft | 185 kts | 95° |
| 2026-04-23 18:45 | 41.65258 | 19.65919 | 4305 ft | 184 kts | 95° |
| 2026-04-23 18:45 | 41.64897 | 19.67568 | 4163 ft | 188 kts | 116° |
| 2026-04-23 18:45 | 41.63961 | 19.68815 | 3995 ft | 197 kts | 147° |
| 2026-04-23 18:46 | 41.62633 | 19.69256 | 3764 ft | 195 kts | 172° |
| 2026-04-23 18:46 | 41.61309 | 19.69413 | 3568 ft | 186 kts | 171° |
| 2026-04-23 18:46 | 41.60047 | 19.69576 | 3418 ft | 179 kts | 172° |
| 2026-04-23 18:46 | 41.58800 | 19.69742 | 3295 ft | 181 kts | 172° |
| 2026-04-23 18:47 | 41.57549 | 19.69910 | 3065 ft | 180 kts | 171° |
| 2026-04-23 18:47 | 41.56308 | 19.70076 | 2821 ft | 178 kts | 172° |
| 2026-04-23 18:47 | 41.55076 | 19.70241 | 2586 ft | 178 kts | 172° |
| 2026-04-23 18:47 | 41.53842 | 19.70404 | 2345 ft | 178 kts | 174° |
| 2026-04-23 18:48 | 41.52622 | 19.70568 | 2126 ft | 172 kts | 174° |
| 2026-04-23 18:48 | 41.51443 | 19.70726 | 1883 ft | 168 kts | 175° |
| 2026-04-23 18:48 | 41.50281 | 19.70880 | 1649 ft | 169 kts | 175° |
| 2026-04-23 18:48 | 41.49120 | 19.71030 | 1537 ft | 168 kts | 176° |
| 2026-04-23 18:49 | 41.48006 | 19.70703 | 1515 ft | 163 kts | 214° |
| 2026-04-23 18:49 | 41.47069 | 19.69853 | 1520 ft | 162 kts | 223° |
| 2026-04-23 18:49 | 41.46184 | 19.68929 | 1528 ft | 161 kts | 225° |
| 2026-04-23 18:49 | 41.45309 | 19.67997 | 1538 ft | 160 kts | 225° |
| 2026-04-23 18:50 | 41.44696 | 19.67440 | 1538 ft | 164 kts | 208° |
| 2026-04-23 18:50 | 41.43155 | 19.67261 | 1548 ft | 169 kts | 178° |
| 2026-04-23 18:50 | 41.41962 | 19.67391 | 1536 ft | 175 kts | 175° |
| 2026-04-23 18:50 | 41.40736 | 19.67550 | 1537 ft | 178 kts | 176° |
| 2026-04-23 18:51 | 41.39497 | 19.67720 | 1535 ft | 179 kts | 175° |
| 2026-04-23 18:51 | 41.38258 | 19.67889 | 1536 ft | 179 kts | 175° |
| 2026-04-23 18:51 | 41.37024 | 19.68057 | 1545 ft | 177 kts | 175° |
| 2026-04-23 18:51 | 41.35818 | 19.68236 | 1549 ft | 177 kts | 169° |
| 2026-04-23 18:52 | 41.34827 | 19.69115 | 1586 ft | 172 kts | 118° |
| 2026-04-23 18:52 | 41.34527 | 19.70581 | 1627 ft | 162 kts | 82° |
| 2026-04-23 18:52 | 41.34799 | 19.71974 | 1419 ft | 150 kts | 53° |
| 2026-04-23 18:52 | 41.35508 | 19.72921 | 1217 ft | 144 kts | 20° |
| 2026-04-23 18:53 | 41.36458 | 19.72938 | 1012 ft | 137 kts | 345° |
| 2026-04-23 18:53 | 41.37387 | 19.72631 | 738 ft | 139 kts | 349° |
| 2026-04-23 18:53 | 41.38362 | 19.72487 | 523 ft | 146 kts | 352° |
| 2026-04-23 18:53 | 41.39393 | 19.72336 | 321 ft | 147 kts | 353° |
| 2026-04-23 18:54 | 41.40422 | 19.72199 | 157 ft | 148 kts | 353° |
| 2026-04-23 18:54 | 41.41340 | 19.72075 | 126 ft | 113 kts | 354° |
| 2026-04-23 18:54 | 41.41953 | 19.71992 | 124 ft | 73 kts | 354° |
| 2026-04-23 18:54 | 41.42390 | 19.71933 | 119 ft | 46 kts | 354° |
| 2026-04-23 18:55 | 41.42585 | 19.71907 | 116 ft | 19 kts | 354° |
| 2026-04-23 18:55 | 41.42672 | 19.71882 | 116 ft | 9 kts | 319° |
| 2026-04-23 18:55 | 41.42683 | 19.71795 | 117 ft | 10 kts | 264° |
| 2026-04-23 18:55 | 41.42675 | 19.71692 | 118 ft | 12 kts | 264° |
| 2026-04-23 18:56 | 41.42669 | 19.71617 | 118 ft | 11 kts | 264° |
| 2026-04-23 18:56 | 41.42658 | 19.71507 | 118 ft | 9 kts | 246° |
| 2026-04-23 18:56 | 41.42595 | 19.71493 | 114 ft | 10 kts | 174° |
| 2026-04-23 18:56 | 41.42517 | 19.71503 | 119 ft | 12 kts | 174° |
| 2026-04-23 18:57 | 41.42432 | 19.71514 | 118 ft | 13 kts | 174° |
| 2026-04-23 18:57 | 41.42336 | 19.71528 | 116 ft | 14 kts | 174° |
| 2026-04-23 18:57 | 41.42231 | 19.71542 | 119 ft | 16 kts | 174° |
| 2026-04-23 18:57 | 41.42120 | 19.71557 | 119 ft | 16 kts | 174° |
| 2026-04-23 18:58 | 41.42017 | 19.71571 | 119 ft | 14 kts | 174° |
| 2026-04-23 18:58 | 41.41935 | 19.71582 | 120 ft | 7 kts | 174° |
| 2026-04-23 18:58 | 41.41913 | 19.71568 | 123 ft | 3 kts | 239° |
| 2026-04-23 18:58 | 41.41911 | 19.71548 | 122 ft | 2 kts | 267° |
| 2026-04-23 18:59 | 41.41910 | 19.71537 | 123 ft | 1 kts | 265° |
| 2026-04-23 18:59 | 41.41910 | 19.71530 | 123 ft | 0 kts | 264° |
| 2026-04-23 18:59 | 41.41910 | 19.71526 | 123 ft | 1 kts | 264° |
| 2026-04-23 18:59 | 41.41909 | 19.71524 | 123 ft | 0 kts | 264° |